createdAt,value
2023-05-05T00:00:49.902Z,16.4893
2023-05-05T00:01:52.355Z,16.6051
2023-05-05T00:02:54.866Z,16.5401
2023-05-05T00:03:57.574Z,16.5525
2023-05-05T00:05:00.008Z,16.7507
2023-05-05T00:06:02.459Z,16.7025
2023-05-05T00:07:04.909Z,16.8952
2023-05-05T00:08:07.577Z,17.3844
2023-05-05T00:09:10.054Z,17.4255
2023-05-05T00:10:12.486Z,17.0053
2023-05-05T00:11:15.259Z,16.6207
2023-05-05T00:12:17.761Z,16.4485
2023-05-05T00:13:20.364Z,16.3263
2023-05-05T00:14:22.811Z,16.2223
2023-05-05T00:15:25.289Z,16.1892
2023-05-05T00:16:28.047Z,16.0795
2023-05-05T00:17:30.516Z,15.9945
2023-05-05T00:18:33.019Z,15.8981
2023-05-05T00:19:35.473Z,15.8827
2023-05-05T00:20:37.953Z,15.9743
2023-05-05T00:21:40.429Z,16.1838
2023-05-05T00:22:42.930Z,16.1505
2023-05-05T00:23:45.406Z,16.0787
2023-05-05T00:24:47.902Z,16.0806
2023-05-05T00:25:50.773Z,16.2046
2023-05-05T00:26:53.276Z,16.2143
2023-05-05T00:27:55.783Z,16.1314
2023-05-05T00:28:58.280Z,16.0541
2023-05-05T00:30:00.780Z,16.0863
2023-05-05T00:31:03.283Z,16.1108
2023-05-05T00:32:05.787Z,16.0470
2023-05-05T00:33:08.353Z,16.0242
2023-05-05T00:34:10.898Z,16.1628
2023-05-05T00:35:13.392Z,16.0026
2023-05-05T00:36:15.861Z,16.0071
2023-05-05T00:37:18.371Z,15.8775
2023-05-05T00:38:21.101Z,15.9100
2023-05-05T00:39:23.613Z,15.8879
2023-05-05T00:40:26.134Z,15.8755
2023-05-05T00:41:28.681Z,15.9729
2023-05-05T00:42:31.202Z,15.8859
2023-05-05T00:43:33.766Z,15.9740
2023-05-05T00:44:36.306Z,15.9667
2023-05-05T00:45:38.796Z,15.9619
2023-05-05T00:46:41.435Z,15.8719
2023-05-05T00:47:43.941Z,15.8546
2023-05-05T00:48:46.419Z,15.7242
2023-05-05T00:49:48.916Z,15.7146
2023-05-05T00:50:51.388Z,15.6664
2023-05-05T00:51:53.840Z,15.6210
2023-05-05T00:52:56.317Z,15.5748
2023-05-05T00:53:58.823Z,15.5277
2023-05-05T00:55:01.318Z,15.4454
2023-05-05T00:56:03.762Z,15.4545
2023-05-05T00:57:06.219Z,15.4322
2023-05-05T00:58:08.686Z,15.4163
2023-05-05T00:59:11.148Z,15.4839
2023-05-05T01:00:13.631Z,15.4184
2023-05-05T01:01:16.100Z,15.4349
2023-05-05T01:02:18.539Z,15.3884
2023-05-05T01:03:21.051Z,15.3281
2023-05-05T01:04:23.550Z,15.3056
2023-05-05T01:05:25.974Z,15.2791
2023-05-05T01:06:28.462Z,15.1980
2023-05-05T01:07:30.907Z,15.1554
2023-05-05T01:08:33.373Z,15.0898
2023-05-05T01:09:35.893Z,15.1237
2023-05-05T01:10:38.325Z,15.2599
2023-05-05T01:11:40.824Z,15.3628
2023-05-05T01:12:43.333Z,15.5778
2023-05-05T01:13:45.797Z,15.6520
2023-05-05T01:14:48.268Z,15.4825
2023-05-05T01:15:50.773Z,15.3431
2023-05-05T01:16:53.197Z,15.3177
2023-05-05T01:17:55.699Z,15.2197
2023-05-05T01:18:58.185Z,15.2019
2023-05-05T01:20:00.745Z,15.0808
2023-05-05T01:21:03.224Z,15.1785
2023-05-05T01:22:05.700Z,15.1468
2023-05-05T01:23:08.178Z,15.1771
2023-05-05T01:24:10.917Z,15.1267
2023-05-05T01:25:13.364Z,15.0199
2023-05-05T01:26:15.788Z,14.9412
2023-05-05T01:27:18.257Z,14.9208
2023-05-05T01:28:20.739Z,14.8898
2023-05-05T01:29:23.242Z,14.7916
2023-05-05T01:30:25.709Z,14.8133
2023-05-05T01:31:28.248Z,14.8056
2023-05-05T01:32:30.716Z,14.7899
2023-05-05T01:33:33.109Z,14.8183
2023-05-05T01:34:35.628Z,14.7684
2023-05-05T01:35:38.075Z,14.7032
2023-05-05T01:36:40.528Z,14.6603
2023-05-05T01:37:43.020Z,14.6644
2023-05-05T01:38:45.711Z,14.6215
2023-05-05T01:39:48.166Z,14.6143
2023-05-05T01:40:50.635Z,14.6462
2023-05-05T01:41:53.066Z,14.5918
2023-05-05T01:42:55.565Z,14.6112
2023-05-05T01:43:58.038Z,14.5785
2023-05-05T01:45:00.509Z,14.5350
2023-05-05T01:46:03.236Z,14.5336
2023-05-05T01:47:05.741Z,14.4908
2023-05-05T01:48:08.189Z,14.5105
2023-05-05T01:49:10.648Z,14.4896
2023-05-05T01:50:13.112Z,14.6013
2023-05-05T01:51:15.573Z,14.6933
2023-05-05T01:52:18.044Z,14.7805
2023-05-05T01:53:20.740Z,14.8297
2023-05-05T01:54:23.185Z,14.8341
2023-05-05T01:55:25.645Z,14.8777
2023-05-05T01:56:28.366Z,14.9090
2023-05-05T01:57:30.815Z,15.0057
2023-05-05T01:58:33.517Z,15.1020
2023-05-05T01:59:36.014Z,15.0453
2023-05-05T02:00:38.494Z,15.1138
2023-05-05T02:01:41.057Z,14.9941
2023-05-05T02:02:43.576Z,14.9363
2023-05-05T02:03:46.128Z,14.9784
2023-05-05T02:04:48.600Z,15.0708
2023-05-05T02:05:51.388Z,15.0345
2023-05-05T02:06:53.837Z,14.9494
2023-05-05T02:07:56.329Z,14.9197
2023-05-05T02:08:58.838Z,14.9242
2023-05-05T02:10:01.357Z,15.7084
2023-05-05T02:11:03.915Z,16.3134
2023-05-05T02:12:06.416Z,16.0940
2023-05-05T02:13:09.016Z,15.5642
2023-05-05T02:14:11.762Z,15.2813
2023-05-05T02:15:14.281Z,15.5007
2023-05-05T02:16:16.901Z,15.4299
2023-05-05T02:17:19.472Z,15.3512
2023-05-05T02:18:21.949Z,15.3240
2023-05-05T02:19:22.321Z,15.2341
2023-05-05T02:20:24.848Z,15.1881
2023-05-05T02:21:27.684Z,15.2552
2023-05-05T02:22:30.140Z,15.1856
2023-05-05T02:23:32.683Z,14.9988
2023-05-05T02:24:35.170Z,15.0775
2023-05-05T02:25:37.638Z,15.0188
2023-05-05T02:26:40.400Z,14.8936
2023-05-05T02:27:42.872Z,14.8876
2023-05-05T02:28:45.633Z,14.9010
2023-05-05T02:29:48.080Z,14.8199
2023-05-05T02:30:50.745Z,14.7293
2023-05-05T02:31:53.472Z,14.7136
2023-05-05T02:32:55.979Z,14.6068
2023-05-05T02:33:58.782Z,14.5705
2023-05-05T02:35:01.254Z,14.6478
2023-05-05T02:36:03.959Z,14.6900
2023-05-05T02:37:06.411Z,14.7561
2023-05-05T02:38:08.823Z,14.6462
2023-05-05T02:39:11.585Z,14.5950
2023-05-05T02:40:14.063Z,14.5746
2023-05-05T02:41:16.824Z,14.5849
2023-05-05T02:42:19.244Z,14.5098
2023-05-05T02:43:21.733Z,14.4649
2023-05-05T02:44:24.533Z,14.4619
2023-05-05T02:45:26.937Z,14.4239
2023-05-05T02:46:29.700Z,14.3493
2023-05-05T02:47:32.147Z,14.3344
2023-05-05T02:48:34.620Z,14.3014
2023-05-05T02:49:37.314Z,14.2628
2023-05-05T02:50:39.812Z,14.3713
2023-05-05T02:51:42.275Z,14.3435
2023-05-05T02:52:44.719Z,14.3649
2023-05-05T02:53:47.165Z,14.3292
2023-05-05T02:54:49.595Z,14.2871
2023-05-05T02:55:52.061Z,14.2494
2023-05-05T02:56:54.490Z,14.2147
2023-05-05T02:57:56.917Z,14.1563
2023-05-05T02:58:59.381Z,14.1402
2023-05-05T03:00:01.835Z,14.0969
2023-05-05T03:01:04.296Z,14.0927
2023-05-05T03:02:07.079Z,14.0828
2023-05-05T03:03:09.595Z,14.1241
2023-05-05T03:04:12.072Z,14.1324
2023-05-05T03:05:14.481Z,14.0820
2023-05-05T03:06:17.046Z,14.0796
2023-05-05T03:07:19.499Z,14.1538
2023-05-05T03:08:21.916Z,14.2178
2023-05-05T03:09:24.394Z,14.1621
2023-05-05T03:10:26.841Z,14.0977
2023-05-05T03:11:29.300Z,14.0326
2023-05-05T03:12:31.779Z,14.0017
2023-05-05T03:13:34.189Z,14.1057
2023-05-05T03:14:36.661Z,14.0457
2023-05-05T03:15:39.111Z,13.9700
2023-05-05T03:16:41.638Z,13.9673
2023-05-05T03:17:44.142Z,13.9739
2023-05-05T03:18:46.602Z,14.0069
2023-05-05T03:19:49.062Z,13.9786
2023-05-05T03:20:51.491Z,14.0934
2023-05-05T03:21:53.949Z,14.1625
2023-05-05T03:22:56.380Z,14.2133
2023-05-05T03:23:58.836Z,14.3556
2023-05-05T03:25:01.287Z,14.4575
2023-05-05T03:26:03.739Z,14.4269
2023-05-05T03:27:06.389Z,14.3649
2023-05-05T03:28:08.804Z,14.2972
2023-05-05T03:29:11.234Z,14.3141
2023-05-05T03:30:13.665Z,14.4005
2023-05-05T03:31:16.152Z,14.4555
2023-05-05T03:32:18.601Z,14.5453
2023-05-05T03:33:21.017Z,14.5901
2023-05-05T03:34:23.487Z,14.5991
2023-05-05T03:35:25.929Z,14.5309
2023-05-05T03:36:29.502Z,14.5625
2023-05-05T03:37:32.018Z,14.5713
2023-05-05T03:38:34.566Z,14.5480
2023-05-05T03:39:36.986Z,14.4704
2023-05-05T03:40:44.196Z,14.4621
2023-05-05T03:41:40.710Z,14.4234
2023-05-05T03:42:43.152Z,14.4495
2023-05-05T03:43:45.816Z,14.4514
2023-05-05T03:44:48.294Z,14.5037
2023-05-05T03:45:50.781Z,14.5929
2023-05-05T03:46:51.116Z,14.6289
2023-05-05T03:47:53.609Z,14.6586
2023-05-05T03:48:56.399Z,14.6019
2023-05-05T03:49:58.816Z,14.4883
2023-05-05T03:51:01.273Z,14.4503
2023-05-05T03:52:04.078Z,14.3873
2023-05-05T03:53:06.543Z,14.4949
2023-05-05T03:54:09.314Z,14.5425
2023-05-05T03:55:11.750Z,14.5480
2023-05-05T03:56:14.224Z,14.5565
2023-05-05T03:57:17.015Z,14.5224
2023-05-05T03:58:19.420Z,14.4475
2023-05-05T03:59:21.862Z,14.4533
2023-05-05T04:00:24.330Z,14.5153
2023-05-05T04:01:27.049Z,14.6162
2023-05-05T04:02:29.591Z,14.7582
2023-05-05T04:03:32.164Z,14.7946
2023-05-05T04:04:34.791Z,14.8350
2023-05-05T04:05:37.323Z,14.8498
2023-05-05T04:06:39.816Z,14.7759
2023-05-05T04:07:42.279Z,14.7136
2023-05-05T04:08:44.757Z,14.6633
2023-05-05T04:09:47.222Z,14.6431
2023-05-05T04:10:49.736Z,14.5794
2023-05-05T04:11:52.224Z,14.4503
2023-05-05T04:12:54.683Z,14.2133
2023-05-05T04:13:57.115Z,13.8972
2023-05-05T04:14:59.635Z,13.6811
2023-05-05T04:16:02.120Z,13.6960
2023-05-05T04:17:04.607Z,13.7769
2023-05-05T04:18:07.104Z,13.7161
2023-05-05T04:19:09.570Z,13.6869
2023-05-05T04:20:12.047Z,13.7067
2023-05-05T04:21:14.492Z,13.6908
2023-05-05T04:22:16.937Z,13.7816
2023-05-05T04:23:19.380Z,13.8771
2023-05-05T04:24:21.831Z,13.8036
2023-05-05T04:25:24.285Z,13.9423
2023-05-05T04:26:26.711Z,14.3498
2023-05-05T04:27:29.228Z,14.6000
2023-05-05T04:28:31.661Z,14.4475
2023-05-05T04:29:34.152Z,14.6245
2023-05-05T04:30:36.636Z,14.7131
2023-05-05T04:31:39.114Z,14.8538
2023-05-05T04:32:41.539Z,14.6035
2023-05-05T04:33:44.105Z,14.5139
2023-05-05T04:34:46.609Z,14.6514
2023-05-05T04:35:49.028Z,14.7601
2023-05-05T04:36:51.478Z,15.3920
2023-05-05T04:37:53.904Z,16.1969
2023-05-05T04:38:56.433Z,15.3322
2023-05-05T04:39:58.900Z,14.7638
2023-05-05T04:41:01.358Z,14.9406
2023-05-05T04:42:03.867Z,15.1237
2023-05-05T04:43:06.276Z,15.2786
2023-05-05T04:44:08.745Z,15.1210
2023-05-05T04:45:11.169Z,15.0017
2023-05-05T04:46:13.691Z,14.8919
2023-05-05T04:47:16.429Z,14.6638
2023-05-05T04:48:18.905Z,14.6039
2023-05-05T04:49:21.411Z,14.4087
2023-05-05T04:50:23.835Z,14.4316
2023-05-05T04:51:26.296Z,14.3064
2023-05-05T04:52:28.781Z,14.1049
2023-05-05T04:53:31.234Z,14.1000
2023-05-05T04:54:33.729Z,14.1625
2023-05-05T04:55:36.167Z,14.1569
2023-05-05T04:56:38.641Z,14.2833
2023-05-05T04:57:41.114Z,14.7255
2023-05-05T04:58:43.575Z,14.7863
2023-05-05T04:59:46.035Z,14.9415
2023-05-05T05:00:48.500Z,15.3898
2023-05-05T05:01:51.185Z,15.5042
2023-05-05T05:02:53.715Z,15.6325
2023-05-05T05:03:56.224Z,16.1015
2023-05-05T05:04:58.670Z,16.0519
2023-05-05T05:06:01.108Z,16.0143
2023-05-05T05:07:03.619Z,15.5899
2023-05-05T05:08:06.026Z,15.5007
2023-05-05T05:09:08.498Z,15.5359
2023-05-05T05:10:11.108Z,14.8802
2023-05-05T05:11:13.657Z,14.4656
2023-05-05T05:12:16.145Z,14.5194
2023-05-05T05:13:18.747Z,14.4049
2023-05-05T05:14:21.252Z,14.3919
2023-05-05T05:15:23.719Z,14.4641
2023-05-05T05:16:26.347Z,14.5339
2023-05-05T05:17:28.839Z,14.5402
2023-05-05T05:18:31.286Z,14.6332
2023-05-05T05:19:33.752Z,14.8705
2023-05-05T05:20:36.218Z,15.2048
2023-05-05T05:21:38.665Z,14.7302
2023-05-05T05:22:41.150Z,14.8048
2023-05-05T05:23:43.606Z,14.6820
2023-05-05T05:24:46.188Z,14.4467
2023-05-05T05:25:48.674Z,14.5245
2023-05-05T05:26:50.891Z,14.4200
2023-05-05T05:28:06.131Z,14.3503
2023-05-05T05:28:54.398Z,14.5380
2023-05-05T05:29:57.083Z,14.4316
2023-05-05T05:30:59.550Z,14.3682
2023-05-05T05:32:02.106Z,14.3872
2023-05-05T05:33:04.539Z,14.3743
2023-05-05T05:34:04.895Z,14.4157
2023-05-05T05:35:07.370Z,14.8696
2023-05-05T05:36:09.817Z,14.9368
2023-05-05T05:37:12.512Z,14.7327
2023-05-05T05:38:14.991Z,14.7715
2023-05-05T05:39:17.670Z,14.9896
2023-05-05T05:40:20.098Z,15.0018
2023-05-05T05:41:22.584Z,14.9146
2023-05-05T05:42:25.251Z,14.8663
2023-05-05T05:43:27.726Z,15.1115
2023-05-05T05:44:30.430Z,15.1694
2023-05-05T05:45:32.910Z,15.2802
2023-05-05T05:46:35.452Z,15.0640
2023-05-05T05:47:38.232Z,15.1455
2023-05-05T05:48:40.694Z,15.1963
2023-05-05T05:49:43.383Z,14.9786
2023-05-05T05:50:45.990Z,15.0449
2023-05-05T05:51:48.420Z,14.9465
2023-05-05T05:52:50.838Z,14.8884
2023-05-05T05:53:53.361Z,15.0153
2023-05-05T05:54:55.780Z,15.3942
2023-05-05T05:55:58.263Z,15.6597
2023-05-05T05:57:00.826Z,15.3497
2023-05-05T05:58:03.257Z,15.5384
2023-05-05T05:59:05.712Z,15.7616
2023-05-05T06:00:08.669Z,16.1705
2023-05-05T06:01:11.379Z,16.0335
2023-05-05T06:02:14.176Z,16.0715
2023-05-05T06:03:16.868Z,16.2420
2023-05-05T06:04:19.678Z,16.3070
2023-05-05T06:05:22.125Z,16.1600
2023-05-05T06:06:24.583Z,16.2619
2023-05-05T06:07:30.688Z,16.0828
2023-05-05T06:08:33.150Z,16.3847
2023-05-05T06:09:35.922Z,16.1056
2023-05-05T06:10:38.357Z,16.2801
2023-05-05T06:11:40.798Z,16.4661
2023-05-05T06:12:43.439Z,17.0768
2023-05-05T06:13:45.884Z,17.8591
2023-05-05T06:14:48.590Z,17.9428
2023-05-05T06:15:51.096Z,17.9067
2023-05-05T06:16:53.619Z,16.5027
2023-05-05T06:17:56.061Z,18.1657
2023-05-05T06:18:58.536Z,17.9686
2023-05-05T06:20:01.348Z,17.7908
2023-05-05T06:21:03.802Z,18.1954
2023-05-05T06:22:06.281Z,18.2046
2023-05-05T06:23:08.742Z,18.9417
2023-05-05T06:24:11.243Z,19.4597
2023-05-05T06:25:13.927Z,19.2721
2023-05-05T06:26:16.418Z,19.0024
2023-05-05T06:27:18.884Z,19.6015
2023-05-05T06:28:21.353Z,19.3973
2023-05-05T06:29:23.958Z,18.3608
2023-05-05T06:30:26.449Z,19.2594
2023-05-05T06:31:28.977Z,19.5202
2023-05-05T06:32:31.435Z,19.6220
2023-05-05T06:33:33.881Z,19.2665
2023-05-05T06:34:36.617Z,19.4079
2023-05-05T06:35:39.044Z,19.0926
2023-05-05T06:36:41.604Z,18.5133
2023-05-05T06:37:44.392Z,19.1696
2023-05-05T06:38:46.828Z,19.3934
2023-05-05T06:39:49.314Z,19.3760
2023-05-05T06:40:51.796Z,19.1768
2023-05-05T06:41:54.271Z,19.7127
2023-05-05T06:42:56.669Z,19.3727
2023-05-05T06:43:59.103Z,18.9327
2023-05-05T06:45:01.902Z,17.4430
2023-05-05T06:46:04.327Z,17.7111
2023-05-05T06:47:06.837Z,18.3812
2023-05-05T06:48:09.335Z,18.6599
2023-05-05T06:49:11.766Z,18.4324
2023-05-05T06:50:14.277Z,17.8299
2023-05-05T06:51:16.756Z,18.3658
2023-05-05T06:52:19.242Z,19.0990
2023-05-05T06:53:21.701Z,19.6798
2023-05-05T06:54:24.198Z,18.6732
2023-05-05T06:55:26.875Z,19.9378
2023-05-05T06:56:29.364Z,20.3577
2023-05-05T06:57:31.880Z,20.0901
2023-05-05T06:58:34.358Z,19.9166
2023-05-05T06:59:36.837Z,19.7767
2023-05-05T07:00:39.412Z,20.5743
2023-05-05T07:01:41.895Z,20.1978
2023-05-05T07:02:42.702Z,20.1703
2023-05-05T07:03:45.284Z,20.3225
2023-05-05T07:04:48.026Z,19.7151
2023-05-05T07:05:50.523Z,19.3347
2023-05-05T07:06:53.005Z,19.9793
2023-05-05T07:07:55.503Z,20.1507
2023-05-05T07:08:57.976Z,20.5729
2023-05-05T07:10:00.483Z,20.1936
2023-05-05T07:11:02.960Z,19.3966
2023-05-05T07:12:05.412Z,19.9700
2023-05-05T07:13:07.977Z,19.4908
2023-05-05T07:14:10.535Z,20.2716
2023-05-05T07:15:26.933Z,20.5234
2023-05-05T07:16:14.190Z,21.2674
2023-05-05T07:17:16.693Z,20.2135
2023-05-05T07:18:19.200Z,20.0531
2023-05-05T07:19:21.717Z,20.1149
2023-05-05T07:20:24.445Z,20.7876
2023-05-05T07:21:27.081Z,20.1753
2023-05-05T07:22:29.623Z,18.1407
2023-05-05T07:23:32.163Z,20.0065
2023-05-05T07:24:34.604Z,20.9479
2023-05-05T07:25:37.119Z,20.5113
2023-05-05T07:26:39.612Z,19.0196
2023-05-05T07:28:42.438Z,19.9590
2023-05-05T07:29:44.957Z,19.7913
2023-05-05T07:30:47.482Z,19.9246
2023-05-05T07:31:50.040Z,20.1661
2023-05-05T07:32:52.541Z,18.9625
2023-05-05T07:33:55.001Z,19.8299
2023-05-05T07:34:57.507Z,19.0412
2023-05-05T07:36:00.457Z,19.0623
2023-05-05T07:37:02.957Z,19.7877
2023-05-05T07:38:05.652Z,21.1083
2023-05-05T07:39:08.448Z,19.4106
2023-05-05T07:40:11.145Z,20.1174
2023-05-05T07:41:13.787Z,20.6414
2023-05-05T07:42:16.282Z,21.0996
2023-05-05T07:43:18.810Z,21.0482
2023-05-05T07:44:21.344Z,19.1515
2023-05-05T07:45:24.112Z,19.3285
2023-05-05T07:46:26.678Z,18.7965
2023-05-05T07:47:29.200Z,18.7984
2023-05-05T07:48:31.666Z,19.6213
2023-05-05T07:49:34.411Z,19.4289
2023-05-05T07:51:40.541Z,20.3283
2023-05-05T07:52:48.416Z,19.4581
2023-05-05T07:53:44.152Z,20.0150
2023-05-05T07:54:46.685Z,19.5109
2023-05-05T07:55:49.405Z,18.2502
2023-05-05T07:56:51.975Z,18.0879
2023-05-05T07:57:54.896Z,18.7367
2023-05-05T07:58:57.409Z,19.7751
2023-05-05T08:00:07.557Z,19.5407
2023-05-05T08:01:10.208Z,20.4055
2023-05-05T08:03:13.023Z,20.5517
2023-05-05T08:04:15.595Z,22.0055
2023-05-05T08:05:18.151Z,20.6158
2023-05-05T08:06:20.655Z,19.5370
2023-05-05T08:07:23.527Z,20.0736
2023-05-05T08:08:26.081Z,21.2967
2023-05-05T08:09:28.557Z,22.1131
2023-05-05T08:10:31.323Z,21.9852
2023-05-05T08:11:33.864Z,22.1883
2023-05-05T08:12:36.327Z,21.7670
2023-05-05T08:13:38.836Z,22.1157
2023-05-05T08:14:41.350Z,21.6522
2023-05-05T08:15:44.062Z,21.8476
2023-05-05T08:16:46.558Z,21.7409
2023-05-05T08:17:49.492Z,22.1525
2023-05-05T08:18:52.195Z,21.6858
2023-05-05T08:19:54.678Z,22.6487
2023-05-05T08:20:57.160Z,22.9343
2023-05-05T08:22:01.205Z,23.1639
2023-05-05T08:23:00.322Z,23.3601
2023-05-05T08:24:02.782Z,21.3456
2023-05-05T08:25:05.415Z,21.4054
2023-05-05T08:27:08.187Z,20.6673
2023-05-05T08:28:10.681Z,21.7028
2023-05-05T08:30:14.119Z,21.7835
2023-05-05T08:31:16.635Z,22.9405
2023-05-05T08:32:19.128Z,22.4294
2023-05-05T08:33:21.624Z,22.9303
2023-05-05T08:34:24.113Z,23.1129
2023-05-05T08:35:26.611Z,24.0938
2023-05-05T08:36:29.103Z,22.2902
2023-05-05T08:37:31.672Z,20.4180
2023-05-05T08:38:34.146Z,21.4277
2023-05-05T08:39:36.637Z,21.1173
2023-05-05T08:40:39.147Z,23.3276
2023-05-05T08:41:41.647Z,23.1088
2023-05-05T08:42:44.155Z,22.6966
2023-05-05T08:43:46.652Z,21.7815
2023-05-05T08:44:49.641Z,21.4476
2023-05-05T08:45:52.155Z,21.0009
2023-05-05T08:46:54.694Z,21.2264
2023-05-05T08:47:57.168Z,21.7848
2023-05-05T08:48:59.672Z,20.6695
2023-05-05T08:50:02.283Z,20.9502
2023-05-05T08:51:05.670Z,21.0119
2023-05-05T08:52:08.256Z,20.8407
2023-05-05T08:53:10.742Z,20.7366
2023-05-05T08:54:13.245Z,20.9791
2023-05-05T08:55:15.826Z,21.2358
2023-05-05T08:57:18.689Z,20.7163
2023-05-05T08:58:21.188Z,21.6407
2023-05-05T08:59:23.672Z,22.8194
2023-05-05T09:00:26.164Z,21.9835
2023-05-05T09:02:29.511Z,22.5621
2023-05-05T09:03:32.040Z,22.4583
2023-05-05T09:04:34.614Z,23.1991
2023-05-05T09:05:37.356Z,23.3480
2023-05-05T09:06:39.805Z,23.1023
2023-05-05T09:07:42.312Z,23.2063
2023-05-05T09:08:44.596Z,23.6011
2023-05-05T09:09:47.072Z,22.9427
2023-05-05T09:10:52.929Z,22.5088
2023-05-05T09:11:55.487Z,22.1594
2023-05-05T09:12:57.989Z,21.7843
2023-05-05T09:14:00.494Z,22.2557
2023-05-05T09:15:02.996Z,22.1567
2023-05-05T09:16:05.525Z,22.6723
2023-05-05T09:17:08.002Z,21.7684
2023-05-05T09:18:10.572Z,21.6512
2023-05-05T09:19:13.019Z,22.3908
2023-05-05T09:20:15.519Z,22.3053
2023-05-05T09:21:18.003Z,22.4681
2023-05-05T09:22:20.492Z,21.3980
2023-05-05T09:23:22.991Z,21.2824
2023-05-05T09:24:25.485Z,22.5576
2023-05-05T09:25:27.978Z,22.6551
2023-05-05T09:26:30.486Z,22.6005
2023-05-05T09:27:32.986Z,21.8027
2023-05-05T09:28:35.490Z,21.4251
2023-05-05T09:29:38.002Z,21.8331
2023-05-05T09:30:40.269Z,22.0439
2023-05-05T09:31:42.769Z,23.5481
2023-05-05T09:32:43.849Z,23.0851
2023-05-05T09:34:47.003Z,23.4333
2023-05-05T09:35:49.239Z,22.4505
2023-05-05T09:36:51.743Z,22.5193
2023-05-05T09:37:54.235Z,22.8856
2023-05-05T09:38:58.780Z,23.4371
2023-05-05T09:39:57.487Z,23.7814
2023-05-05T09:40:59.970Z,24.1969
2023-05-05T09:42:02.437Z,23.2300
2023-05-05T09:43:04.962Z,23.6644
2023-05-05T09:44:07.461Z,24.2870
2023-05-05T09:45:10.109Z,24.0407
2023-05-05T09:46:12.662Z,24.4410
2023-05-05T09:47:28.539Z,24.1434
2023-05-05T09:48:16.498Z,23.1799
2023-05-05T09:49:18.998Z,23.6662
2023-05-05T09:50:21.492Z,23.8507
2023-05-05T09:51:23.950Z,24.0387
2023-05-05T09:52:26.502Z,23.1707
2023-05-05T09:53:28.980Z,22.7821
2023-05-05T09:54:31.487Z,22.7926
2023-05-05T09:55:34.324Z,23.5957
2023-05-05T09:56:36.834Z,24.4342
2023-05-05T09:57:39.372Z,24.8841
2023-05-05T09:58:41.967Z,24.5291
2023-05-05T09:59:44.477Z,24.1015
2023-05-05T10:00:46.989Z,23.6339
2023-05-05T10:01:49.510Z,22.8402
2023-05-05T10:02:52.034Z,22.7177
2023-05-05T10:03:54.516Z,23.8970
2023-05-05T10:04:57.144Z,23.2621
2023-05-05T10:05:59.674Z,23.0807
2023-05-05T10:07:02.179Z,23.0093
2023-05-05T10:08:04.679Z,23.5497
2023-05-05T10:09:07.177Z,24.1592
2023-05-05T10:10:09.862Z,23.7709
2023-05-05T10:11:12.640Z,22.6983
2023-05-05T10:12:15.357Z,22.9211
2023-05-05T10:13:17.944Z,22.0782
2023-05-05T10:14:20.551Z,23.5624
2023-05-05T10:15:23.047Z,23.7069
2023-05-05T10:16:26.796Z,24.2749
2023-05-05T10:17:26.287Z,24.2700
2023-05-05T10:18:28.782Z,24.0805
2023-05-05T10:19:31.265Z,24.3996
2023-05-05T10:20:33.795Z,23.3954
2023-05-05T10:21:36.283Z,22.7996
2023-05-05T10:22:38.933Z,23.3659
2023-05-05T10:23:41.418Z,23.7629
2023-05-05T10:24:43.915Z,24.7047
2023-05-05T10:25:46.434Z,25.4847
2023-05-05T10:26:48.921Z,24.8918
2023-05-05T10:27:51.694Z,24.9048
2023-05-05T10:28:54.176Z,25.0930
2023-05-05T10:29:56.699Z,22.5768
2023-05-05T10:30:59.202Z,22.7931
2023-05-05T10:32:08.739Z,22.3970
2023-05-05T10:33:27.249Z,21.9825
2023-05-05T10:34:08.464Z,22.0710
2023-05-05T10:35:10.979Z,22.7277
2023-05-05T10:36:13.533Z,23.5974
2023-05-05T10:37:15.996Z,22.8564
2023-05-05T10:38:18.531Z,23.4512
2023-05-05T10:39:21.010Z,23.3750
2023-05-05T10:40:23.555Z,22.7253
2023-05-05T10:41:26.192Z,22.1351
2023-05-05T10:42:28.975Z,22.5657
2023-05-05T10:43:31.497Z,22.2324
2023-05-05T10:44:33.985Z,22.6430
2023-05-05T10:45:36.570Z,23.9658
2023-05-05T10:46:39.175Z,23.8483
2023-05-05T10:47:41.700Z,24.4095
2023-05-05T10:48:44.273Z,22.7880
2023-05-05T10:49:46.782Z,22.9049
2023-05-05T10:50:49.288Z,22.8015
2023-05-05T10:52:52.011Z,22.9861
2023-05-05T10:54:02.225Z,23.6111
2023-05-05T10:55:04.705Z,22.4145
2023-05-05T10:56:07.187Z,22.5747
2023-05-05T10:57:09.714Z,22.4960
2023-05-05T10:58:12.239Z,23.3632
2023-05-05T10:59:15.569Z,23.3683
2023-05-05T11:00:18.104Z,23.7416
2023-05-05T11:01:20.688Z,23.8186
2023-05-05T11:02:23.343Z,22.7235
2023-05-05T11:03:23.397Z,21.9797
2023-05-05T11:04:25.987Z,22.4751
2023-05-05T11:05:28.457Z,23.2117
2023-05-05T11:06:31.172Z,23.5908
2023-05-05T11:07:33.671Z,22.8314
2023-05-05T11:08:36.149Z,23.2955
2023-05-05T11:09:38.667Z,22.8191
2023-05-05T11:10:41.135Z,22.3755
2023-05-05T11:11:43.791Z,23.0929
2023-05-05T11:12:46.350Z,22.5149
2023-05-05T11:13:49.049Z,24.1840
2023-05-05T11:14:51.628Z,23.0580
2023-05-05T11:15:54.235Z,22.7618
2023-05-05T11:16:56.949Z,23.7630
2023-05-05T11:17:59.597Z,24.7890
2023-05-05T11:19:02.111Z,24.4491
2023-05-05T11:20:04.670Z,24.7130
2023-05-05T11:21:07.168Z,25.1046
2023-05-05T11:22:09.672Z,25.0757
2023-05-05T11:23:14.003Z,24.5520
2023-05-05T11:24:14.962Z,25.0838
2023-05-05T11:25:18.255Z,26.0752
2023-05-05T11:26:26.008Z,25.7995
2023-05-05T11:27:21.180Z,23.9878
2023-05-05T11:28:23.729Z,25.1450
2023-05-05T11:29:26.222Z,26.2331
2023-05-05T11:30:29.409Z,24.3034
2023-05-05T11:31:32.029Z,24.7861
2023-05-05T11:32:34.604Z,25.8898
2023-05-05T11:33:37.099Z,25.3264
2023-05-05T11:34:39.599Z,25.3993
2023-05-05T11:35:42.082Z,25.0412
2023-05-05T11:36:44.589Z,24.5870
2023-05-05T11:37:47.093Z,24.5054
2023-05-05T11:38:49.585Z,24.1771
2023-05-05T11:39:52.075Z,24.6979
2023-05-05T11:40:54.783Z,23.9776
2023-05-05T11:41:57.241Z,22.9355
2023-05-05T11:42:59.733Z,24.0734
2023-05-05T11:44:02.240Z,24.7810
2023-05-05T11:45:04.724Z,25.9640
2023-05-05T11:46:07.262Z,24.9241
2023-05-05T11:47:09.726Z,24.9475
2023-05-05T11:48:12.532Z,24.6825
2023-05-05T11:49:14.998Z,24.5464
2023-05-05T11:50:17.738Z,25.9794
2023-05-05T11:51:20.257Z,25.6146
2023-05-05T11:52:22.750Z,25.7772
2023-05-05T11:53:25.295Z,25.6365
2023-05-05T11:54:27.829Z,25.1733
2023-05-05T11:55:30.287Z,23.9751
2023-05-05T11:56:32.798Z,24.4754
2023-05-05T11:57:35.286Z,25.0669
2023-05-05T11:58:37.791Z,24.1954
2023-05-05T11:59:40.290Z,22.9727
2023-05-05T12:00:42.799Z,24.0776
2023-05-05T12:01:45.308Z,24.9064
2023-05-05T12:02:47.862Z,24.3428
2023-05-05T12:03:50.746Z,24.7246
2023-05-05T12:04:53.380Z,25.7797
2023-05-05T12:05:56.032Z,25.8361
2023-05-05T12:06:58.461Z,25.7659
2023-05-05T12:08:00.936Z,24.5151
2023-05-05T12:09:03.409Z,25.5824
2023-05-05T12:10:05.966Z,24.9560
2023-05-05T12:11:08.458Z,25.5455
2023-05-05T12:12:10.946Z,26.5705
2023-05-05T12:13:13.468Z,26.9993
2023-05-05T12:14:16.103Z,24.7019
2023-05-05T12:15:18.560Z,25.9935
2023-05-05T12:16:21.147Z,26.1662
2023-05-05T12:17:23.625Z,25.0935
2023-05-05T12:18:26.085Z,25.7670
2023-05-05T12:19:28.579Z,24.9312
2023-05-05T12:20:31.076Z,25.5097
2023-05-05T12:21:33.566Z,26.6187
2023-05-05T12:22:36.118Z,27.3325
2023-05-05T12:23:38.627Z,25.4092
2023-05-05T12:24:41.104Z,26.1013
2023-05-05T12:25:43.559Z,25.8790
2023-05-05T12:26:46.066Z,26.0337
2023-05-05T12:27:48.534Z,26.1306
2023-05-05T12:28:51.057Z,26.0367
2023-05-05T12:29:53.541Z,26.4022
2023-05-05T12:30:56.053Z,25.1034
2023-05-05T12:31:58.600Z,26.5229
2023-05-05T12:33:01.165Z,25.5883
2023-05-05T12:34:03.650Z,25.4788
2023-05-05T12:35:06.155Z,25.5769
2023-05-05T12:36:08.621Z,26.1310
2023-05-05T12:37:11.138Z,24.6565
2023-05-05T12:38:13.599Z,24.8842
2023-05-05T12:39:16.100Z,25.6605
2023-05-05T12:40:18.650Z,25.3489
2023-05-05T12:41:21.159Z,26.2133
2023-05-05T12:42:23.626Z,27.2318
2023-05-05T12:43:26.140Z,25.3357
2023-05-05T12:44:28.468Z,26.4767
2023-05-05T12:45:31.282Z,25.7125